Time;durP1;ratioP1;P1;durP2;ratioP2;P2;SDS_P1;SDS_P2;PMS_P1;PMS_P2;Temp;Humidity;BMP_temperature;BMP_pressure;BME280_temperature;BME280_humidity;BME280_pressure;Samples;Min_cycle;Max_cycle;Signal;HPM_P1;HPM_P2
2023/04/28 00:00:43;;;;;;;;;;;19.80;86.30;;;;;;5134983;27;20027;-57
2023/04/28 00:03:08;;;;;;;;;;;19.80;86.30;;;;;;5135117;27;20338;-57
2023/04/28 00:05:34;;;;;;;;;;;19.80;86.30;;;;;;5135336;27;19953;-58
2023/04/28 00:07:59;;;;;;;;;;;19.80;86.40;;;;;;5134921;27;19911;-57
2023/04/28 00:10:25;;;;;;;;;;;19.80;86.40;;;;;;5135327;27;19908;-57
2023/04/28 00:12:50;;;;;;;;;;;19.70;86.50;;;;;;5134410;27;20006;-57
2023/04/28 00:15:16;;;;;;;;;;;19.70;86.60;;;;;;5134889;27;19908;-57
2023/04/28 00:17:42;;;;;;;;;;;19.80;86.70;;;;;;5135132;27;20380;-58
2023/04/28 00:20:07;;;;;;;;;;;19.70;86.60;;;;;;5133796;27;19944;-58
2023/04/28 00:22:33;;;;;;;;;;;19.80;86.60;;;;;;5135105;27;19926;-58
2023/04/28 00:24:58;;;;;;;;;;;19.70;86.60;;;;;;5134775;28;19908;-57
2023/04/28 00:27:24;;;;;;;;;;;19.80;86.80;;;;;;5135097;28;20391;-58
2023/04/28 00:29:49;;;;;;;;;;;19.70;86.60;;;;;;5135096;27;20342;-57
2023/04/28 00:32:15;;;;;;;;;;;19.70;86.70;;;;;;5134759;28;20297;-57
2023/04/28 00:34:40;;;;;;;;;;;19.70;86.60;;;;;;5134750;28;19907;-58
2023/04/28 00:37:06;;;;;;;;;;;19.70;86.70;;;;;;5135001;28;19907;-57
2023/04/28 00:39:31;;;;;;;;;;;19.70;86.60;;;;;;5134918;28;20352;-58
2023/04/28 00:41:57;;;;;;;;;;;19.70;86.70;;;;;;5135053;28;19956;-57
2023/04/28 00:44:22;;;;;;;;;;;19.70;86.70;;;;;;5135037;28;19927;-57
2023/04/28 00:46:48;;;;;;;;;;;19.70;86.70;;;;;;5134624;28;19998;-58
2023/04/28 00:49:14;;;;;;;;;;;19.70;86.80;;;;;;5135037;28;20407;-57
2023/04/28 00:51:39;;;;;;;;;;;19.70;86.80;;;;;;5134853;27;19912;-58
2023/04/28 00:54:05;;;;;;;;;;;19.70;86.80;;;;;;5134528;28;19914;-57
2023/04/28 00:56:30;;;;;;;;;;;19.70;86.90;;;;;;5134534;28;20006;-57
2023/04/28 00:58:56;;;;;;;;;;;19.70;86.90;;;;;;5134381;28;19950;-57
2023/04/28 01:01:22;;;;;;;;;;;19.70;86.90;;;;;;5134768;27;19908;-57
2023/04/28 01:03:48;;;;;;;;;;;19.70;86.80;;;;;;5135038;28;19912;-56
2023/04/28 01:06:13;;;;;;;;;;;19.70;86.80;;;;;;5134621;27;19907;-57
2023/04/28 01:08:39;;;;;;;;;;;19.70;87.50;;;;;;5134387;27;19915;-56
2023/04/28 01:11:05;;;;;;;;;;;19.70;86.90;;;;;;5134452;27;19908;-58
2023/04/28 01:13:31;;;;;;;;;;;19.70;86.80;;;;;;5134686;27;19952;-58
2023/04/28 01:15:57;;;;;;;;;;;19.70;87.10;;;;;;5134657;27;19911;-57
2023/04/28 01:18:23;;;;;;;;;;;19.70;86.90;;;;;;5134586;27;19911;-58
2023/04/28 01:20:48;;;;;;;;;;;19.70;87.00;;;;;;5134529;27;20014;-57
2023/04/28 01:23:15;;;;;;;;;;;19.70;87.00;;;;;;5134254;28;19908;-58
2023/04/28 01:25:41;;;;;;;;;;;19.70;87.10;;;;;;5137274;27;19914;-58
2023/04/28 01:28:06;;;;;;;;;;;19.70;87.00;;;;;;5137974;27;19915;-58
2023/04/28 01:30:32;;;;;;;;;;;19.70;87.00;;;;;;5138256;27;19911;-58
2023/04/28 01:32:58;;;;;;;;;;;19.70;87.00;;;;;;5138226;27;19907;-58
2023/04/28 01:35:23;;;;;;;;;;;19.70;87.10;;;;;;5137835;27;19907;-58
2023/04/28 01:37:49;;;;;;;;;;;19.70;87.00;;;;;;5138090;27;19914;-58
2023/04/28 01:40:14;;;;;;;;;;;19.70;87.00;;;;;;5136482;27;20269;-58
2023/04/28 01:42:39;;;;;;;;;;;19.70;87.60;;;;;;5137588;27;19920;-58
2023/04/28 01:45:05;;;;;;;;;;;19.70;87.10;;;;;;5137660;27;19907;-58
2023/04/28 01:47:31;;;;;;;;;;;19.70;87.20;;;;;;5137920;27;19998;-58
2023/04/28 01:49:56;;;;;;;;;;;19.70;87.20;;;;;;5137586;27;19907;-58
2023/04/28 01:52:23;;;;;;;;;;;19.70;87.10;;;;;;5137802;27;19907;-57
2023/04/28 01:54:49;;;;;;;;;;;19.70;87.20;;;;;;5137435;27;19973;-58
2023/04/28 01:57:14;;;;;;;;;;;19.70;87.20;;;;;;5137782;27;20296;-58
2023/04/28 01:59:40;;;;;;;;;;;19.70;87.80;;;;;;5137632;27;19919;-58
2023/04/28 02:02:05;;;;;;;;;;;19.70;87.20;;;;;;5137891;27;19907;-57
2023/04/28 02:04:31;;;;;;;;;;;19.70;87.00;;;;;;5137281;27;19915;-57
2023/04/28 02:06:56;;;;;;;;;;;19.70;87.00;;;;;;5137534;27;19907;-58
2023/04/28 02:09:22;;;;;;;;;;;19.70;87.10;;;;;;5137468;27;19908;-57
2023/04/28 02:11:47;;;;;;;;;;;19.70;87.10;;;;;;5137728;27;20373;-58
2023/04/28 02:14:13;;;;;;;;;;;19.70;87.00;;;;;;5137060;27;19968;-57
2023/04/28 02:16:38;;;;;;;;;;;19.70;87.20;;;;;;5136142;27;19907;-58
2023/04/28 02:19:04;;;;;;;;;;;19.70;87.20;;;;;;5136996;27;20384;-58
2023/04/28 02:21:29;;;;;;;;;;;19.70;87.30;;;;;;5136926;27;19961;-57
2023/04/28 02:23:55;;;;;;;;;;;19.70;87.20;;;;;;5137012;27;19914;-58
2023/04/28 02:26:21;;;;;;;;;;;19.60;87.20;;;;;;5135840;27;19914;-57
2023/04/28 02:28:48;;;;;;;;;;;19.60;87.30;;;;;;5137181;27;20006;-58
2023/04/28 02:31:13;;;;;;;;;;;19.60;87.20;;;;;;5137112;27;19957;-58
2023/04/28 02:33:41;;;;;;;;;;;19.60;87.10;;;;;;5136757;27;19908;-57
2023/04/28 02:36:07;;;;;;;;;;;19.60;87.00;;;;;;5136128;27;19911;-57
2023/04/28 02:38:32;;;;;;;;;;;19.60;87.00;;;;;;5136869;27;19998;-58
2023/04/28 02:40:58;;;;;;;;;;;19.60;87.20;;;;;;5136489;27;19923;-56
2023/04/28 02:43:24;;;;;;;;;;;19.60;87.10;;;;;;5136504;27;19973;-58
2023/04/28 02:45:50;;;;;;;;;;;19.60;87.20;;;;;;5137112;27;20359;-58
2023/04/28 02:48:15;;;;;;;;;;;19.60;87.10;;;;;;5136399;27;20385;-58
2023/04/28 02:50:41;;;;;;;;;;;19.60;87.00;;;;;;5136703;27;19914;-58
2023/04/28 02:53:06;;;;;;;;;;;19.60;87.00;;;;;;5136621;27;19955;-58
2023/04/28 02:55:32;;;;;;;;;;;19.60;87.00;;;;;;5125639;27;19922;-58
2023/04/28 02:57:57;;;;;;;;;;;19.60;87.00;;;;;;5125514;27;19947;-58
2023/04/28 03:00:23;;;;;;;;;;;19.50;87.00;;;;;;5136491;27;19972;-58
2023/04/28 03:02:48;;;;;;;;;;;19.50;87.00;;;;;;5117956;27;19921;-56
2023/04/28 03:05:14;;;;;;;;;;;19.50;87.10;;;;;;5115806;28;19966;-58
2023/04/28 03:07:39;;;;;;;;;;;19.50;87.10;;;;;;5115487;28;20346;-58
2023/04/28 03:10:05;;;;;;;;;;;19.50;87.10;;;;;;5115751;28;19933;-58
2023/04/28 03:12:30;;;;;;;;;;;19.50;87.10;;;;;;5109878;28;19912;-58
2023/04/28 03:14:56;;;;;;;;;;;19.50;87.10;;;;;;5115394;28;19907;-58
2023/04/28 03:17:22;;;;;;;;;;;19.50;87.10;;;;;;5115338;28;19960;-58
2023/04/28 03:19:47;;;;;;;;;;;19.50;87.10;;;;;;5115450;28;19916;-58
2023/04/28 03:22:13;;;;;;;;;;;19.50;87.20;;;;;;5115249;28;19912;-58
2023/04/28 03:24:38;;;;;;;;;;;19.40;87.00;;;;;;5115545;28;19922;-58
2023/04/28 03:27:04;;;;;;;;;;;19.50;87.10;;;;;;5115777;28;20231;-58
2023/04/28 03:29:30;;;;;;;;;;;19.40;87.10;;;;;;5109623;28;19972;-58
2023/04/28 03:31:55;;;;;;;;;;;19.40;87.10;;;;;;5106709;28;19955;-58
2023/04/28 03:34:21;;;;;;;;;;;19.40;87.10;;;;;;5114923;28;20022;-58
2023/04/28 03:36:46;;;;;;;;;;;19.40;87.20;;;;;;5115357;28;19953;-57
2023/04/28 03:39:12;;;;;;;;;;;19.40;87.20;;;;;;5114899;28;20002;-58
2023/04/28 03:41:37;;;;;;;;;;;19.40;87.20;;;;;;5114867;27;19908;-58
2023/04/28 03:44:03;;;;;;;;;;;19.40;87.20;;;;;;5115235;28;19920;-58
2023/04/28 03:46:28;;;;;;;;;;;19.40;87.10;;;;;;5114668;28;19930;-58
2023/04/28 03:48:54;;;;;;;;;;;19.40;87.20;;;;;;5114757;28;19907;-59
2023/04/28 03:51:20;;;;;;;;;;;19.30;87.20;;;;;;5129992;27;19964;-58
2023/04/28 03:53:45;;;;;;;;;;;19.30;87.20;;;;;;5121751;27;19981;-59
2023/04/28 03:56:11;;;;;;;;;;;19.30;87.30;;;;;;5109970;27;19927;-58
2023/04/28 03:58:36;;;;;;;;;;;19.30;87.30;;;;;;5112056;28;19915;-59
2023/04/28 04:01:02;;;;;;;;;;;19.30;87.30;;;;;;5114339;28;19920;-58
2023/04/28 04:03:27;;;;;;;;;;;19.30;87.30;;;;;;5114611;28;19908;-58
2023/04/28 04:05:54;;;;;;;;;;;19.30;87.30;;;;;;5114632;28;19919;-57
2023/04/28 04:08:19;;;;;;;;;;;19.30;87.40;;;;;;5113761;28;20298;-59
2023/04/28 04:10:45;;;;;;;;;;;19.30;87.40;;;;;;5111747;28;19912;-58
2023/04/28 04:13:10;;;;;;;;;;;19.30;87.40;;;;;;5114137;28;20284;-58
2023/04/28 04:15:36;;;;;;;;;;;19.30;87.40;;;;;;5114539;28;19908;-59
2023/04/28 04:18:01;;;;;;;;;;;19.30;87.40;;;;;;5114391;28;19915;-57
2023/04/28 04:20:27;;;;;;;;;;;19.30;87.40;;;;;;5111047;28;19920;-59
2023/04/28 04:22:52;;;;;;;;;;;19.30;87.40;;;;;;5114126;28;19912;-58
2023/04/28 04:25:18;;;;;;;;;;;19.20;87.30;;;;;;5114408;28;19943;-59
2023/04/28 04:27:43;;;;;;;;;;;19.20;87.30;;;;;;5114316;28;19908;-58
2023/04/28 04:30:09;;;;;;;;;;;19.20;87.30;;;;;;5111274;28;20067;-59
2023/04/28 04:32:35;;;;;;;;;;;19.20;87.30;;;;;;5113854;28;19914;-59
2023/04/28 04:35:00;;;;;;;;;;;19.20;87.30;;;;;;5115014;28;19914;-57
2023/04/28 04:37:26;;;;;;;;;;;19.20;87.50;;;;;;5126141;28;20370;-58
2023/04/28 04:39:51;;;;;;;;;;;19.20;88.00;;;;;;5114018;28;19920;-58
2023/04/28 04:42:17;;;;;;;;;;;19.20;87.40;;;;;;5124999;28;19915;-58
2023/04/28 04:44:42;;;;;;;;;;;19.20;87.40;;;;;;5134621;28;19912;-58
2023/04/28 04:47:08;;;;;;;;;;;19.20;87.30;;;;;;5113232;28;19912;-58
2023/04/28 04:49:33;;;;;;;;;;;19.20;87.40;;;;;;5119182;28;19919;-58
2023/04/28 04:52:00;;;;;;;;;;;19.10;87.40;;;;;;5114006;28;19908;-58
2023/04/28 04:54:27;;;;;;;;;;;19.20;87.30;;;;;;5113346;28;20583;-58
2023/04/28 04:56:53;;;;;;;;;;;19.20;86.90;;;;;;5114084;28;19950;-58
2023/04/28 04:59:18;;;;;;;;;;;19.10;87.20;;;;;;5115107;28;19908;-58
2023/04/28 05:01:44;;;;;;;;;;;19.20;87.40;;;;;;5118074;28;19911;-58
2023/04/28 05:04:09;;;;;;;;;;;19.20;87.50;;;;;;5118086;28;19915;-56
2023/04/28 05:06:35;;;;;;;;;;;19.20;87.60;;;;;;5117667;28;19908;-59
2023/04/28 05:09:00;;;;;;;;;;;19.20;87.50;;;;;;5115578;27;19918;-58
2023/04/28 05:11:26;;;;;;;;;;;19.10;87.60;;;;;;5115838;27;20420;-58
2023/04/28 05:13:51;;;;;;;;;;;19.10;87.80;;;;;;5096095;28;19970;-58
2023/04/28 05:16:17;;;;;;;;;;;19.10;87.80;;;;;;5112767;27;19912;-57
2023/04/28 05:18:42;;;;;;;;;;;19.10;87.70;;;;;;5114360;28;20358;-58
2023/04/28 05:21:10;;;;;;;;;;;19.10;87.70;;;;;;5114101;28;19934;-58
2023/04/28 05:23:36;;;;;;;;;;;19.10;87.60;;;;;;5115535;28;19912;-58
2023/04/28 05:26:02;;;;;;;;;;;19.10;87.70;;;;;;5123473;27;20218;-58
2023/04/28 05:28:28;;;;;;;;;;;19.10;87.70;;;;;;5115574;28;19915;-58
2023/04/28 05:30:54;;;;;;;;;;;19.10;87.60;;;;;;5116525;28;19908;-57
2023/04/28 05:33:19;;;;;;;;;;;19.10;87.60;;;;;;5130080;27;20315;-58
2023/04/28 05:35:45;;;;;;;;;;;19.10;87.70;;;;;;5117402;28;19916;-58
2023/04/28 05:38:10;;;;;;;;;;;19.10;87.60;;;;;;5122845;27;19911;-59
2023/04/28 05:40:36;;;;;;;;;;;19.00;87.50;;;;;;5118747;27;19915;-57
2023/04/28 05:43:01;;;;;;;;;;;19.10;87.60;;;;;;5127090;27;20273;-58
2023/04/28 05:45:27;;;;;;;;;;;19.00;87.50;;;;;;5115903;28;19949;-58
2023/04/28 05:47:52;;;;;;;;;;;19.00;87.50;;;;;;5120160;27;20373;-58
2023/04/28 05:50:18;;;;;;;;;;;19.00;87.40;;;;;;5137557;27;19907;-59
2023/04/28 05:52:43;;;;;;;;;;;19.10;87.40;;;;;;5137504;27;19915;-59
2023/04/28 05:55:09;;;;;;;;;;;19.10;87.40;;;;;;5137437;27;19908;-58
2023/04/28 05:57:35;;;;;;;;;;;19.00;87.40;;;;;;5127934;27;20414;-58
2023/04/28 06:00:00;;;;;;;;;;;19.00;87.30;;;;;;5116810;27;20007;-59
2023/04/28 06:02:26;;;;;;;;;;;19.10;87.40;;;;;;5116458;28;19915;-58
2023/04/28 06:04:51;;;;;;;;;;;19.00;87.30;;;;;;5116740;28;19908;-58
2023/04/28 06:07:17;;;;;;;;;;;19.00;87.40;;;;;;5115328;28;19908;-58
2023/04/28 06:09:42;;;;;;;;;;;19.00;87.40;;;;;;5116373;28;19912;-58
2023/04/28 06:12:08;;;;;;;;;;;19.00;87.30;;;;;;5114100;28;19907;-58
2023/04/28 06:14:35;;;;;;;;;;;19.00;87.40;;;;;;5116615;27;20270;-57
2023/04/28 06:17:00;;;;;;;;;;;19.00;87.40;;;;;;5121318;27;19988;-58
2023/04/28 06:19:26;;;;;;;;;;;19.00;87.50;;;;;;5116433;28;19908;-58
2023/04/28 06:21:51;;;;;;;;;;;19.00;87.60;;;;;;5115997;28;20294;-58
2023/04/28 06:24:17;;;;;;;;;;;19.00;87.70;;;;;;5116299;28;19908;-57
2023/04/28 06:26:42;;;;;;;;;;;19.00;88.20;;;;;;5115972;28;19912;-58
2023/04/28 06:29:08;;;;;;;;;;;19.00;87.70;;;;;;5116260;28;19908;-58
2023/04/28 06:31:33;;;;;;;;;;;19.00;87.80;;;;;;5116047;28;20350;-58
2023/04/28 06:33:59;;;;;;;;;;;19.00;87.70;;;;;;5115558;28;19908;-59
2023/04/28 06:36:25;;;;;;;;;;;19.00;87.70;;;;;;5115572;28;19915;-58
2023/04/28 06:38:50;;;;;;;;;;;19.00;87.70;;;;;;5136106;27;20074;-58
2023/04/28 06:41:16;;;;;;;;;;;19.00;87.70;;;;;;5136523;27;20030;-58
2023/04/28 06:43:41;;;;;;;;;;;18.90;87.70;;;;;;5136374;27;19926;-58
2023/04/28 06:46:07;;;;;;;;;;;19.00;87.80;;;;;;5136772;27;20373;-57
2023/04/28 06:48:32;;;;;;;;;;;19.00;87.70;;;;;;5126433;27;20010;-57
2023/04/28 06:50:58;;;;;;;;;;;19.00;87.70;;;;;;5129143;27;19956;-58
2023/04/28 06:53:23;;;;;;;;;;;18.90;87.50;;;;;;5115248;27;19995;-58
2023/04/28 06:55:49;;;;;;;;;;;18.90;88.10;;;;;;5116907;27;19915;-57
2023/04/28 06:58:15;;;;;;;;;;;18.90;88.20;;;;;;5118435;27;19956;-58
2023/04/28 07:00:40;;;;;;;;;;;18.90;88.50;;;;;;5114282;28;19920;-57
2023/04/28 07:03:06;;;;;;;;;;;18.90;88.50;;;;;;5132490;27;20385;-57
2023/04/28 07:05:32;;;;;;;;;;;19.00;88.60;;;;;;5113215;27;19912;-58
2023/04/28 07:07:58;;;;;;;;;;;19.00;88.90;;;;;;5115668;28;19955;-58
2023/04/28 07:10:23;;;;;;;;;;;19.00;88.70;;;;;;5122208;27;20394;-57
2023/04/28 07:12:50;;;;;;;;;;;19.00;89.10;;;;;;5113811;28;19957;-58
2023/04/28 07:15:15;;;;;;;;;;;18.90;88.80;;;;;;5112289;28;20323;-57
2023/04/28 07:17:41;;;;;;;;;;;18.80;82.70;;;;;;5117664;27;19912;-53
2023/04/28 07:20:06;;;;;;;;;;;18.80;85.20;;;;;;5117390;27;19924;-53
2023/04/28 07:22:32;;;;;;;;;;;18.80;86.50;;;;;;5115317;27;19920;-56
2023/04/28 07:24:57;;;;;;;;;;;18.80;83.90;;;;;;5111333;27;19961;-53
2023/04/28 07:27:23;;;;;;;;;;;18.80;86.20;;;;;;5114676;28;19939;-54
2023/04/28 07:29:48;;;;;;;;;;;18.80;87.30;;;;;;5115140;28;20358;-55
2023/04/28 07:32:14;;;;;;;;;;;18.80;87.80;;;;;;5115101;28;19908;-55
2023/04/28 07:34:39;;;;;;;;;;;18.80;87.80;;;;;;5114928;28;19908;-54
2023/04/28 07:37:05;;;;;;;;;;;18.80;88.10;;;;;;5113810;28;20327;-54
2023/04/28 07:39:32;;;;;;;;;;;18.80;88.20;;;;;;5114800;28;19920;-55
2023/04/28 07:41:58;;;;;;;;;;;18.80;88.20;;;;;;5114917;28;19908;-55
2023/04/28 07:44:24;;;;;;;;;;;18.80;88.20;;;;;;5115088;28;20278;-56
2023/04/28 07:46:49;;;;;;;;;;;18.80;88.50;;;;;;5114855;28;19954;-55
2023/04/28 07:49:16;;;;;;;;;;;18.80;88.30;;;;;;5114928;28;19908;-54
2023/04/28 07:51:42;;;;;;;;;;;18.80;88.50;;;;;;5114270;28;19961;-55
2023/04/28 07:54:07;;;;;;;;;;;18.80;88.60;;;;;;5114488;28;20347;-55
2023/04/28 07:56:33;;;;;;;;;;;18.80;88.30;;;;;;5114717;28;19912;-57
2023/04/28 07:58:58;;;;;;;;;;;18.80;88.60;;;;;;5114614;28;19915;-56
2023/04/28 08:01:24;;;;;;;;;;;18.80;88.40;;;;;;5114310;28;20358;-54
2023/04/28 08:03:49;;;;;;;;;;;18.80;88.60;;;;;;5114412;28;19992;-55
2023/04/28 08:06:15;;;;;;;;;;;18.80;88.40;;;;;;5114627;28;20002;-55
2023/04/28 08:08:40;;;;;;;;;;;18.80;88.50;;;;;;5114573;28;20266;-56
2023/04/28 08:11:07;;;;;;;;;;;18.80;88.60;;;;;;5114586;28;20002;-55
2023/04/28 08:13:32;;;;;;;;;;;18.80;88.60;;;;;;5114562;28;19914;-56
2023/04/28 08:16:01;;;;;;;;;;;18.80;88.90;;;;;;5113105;28;19908;-55
2023/04/28 08:18:27;;;;;;;;;;;18.80;88.00;;;;;;5113991;28;20373;-54
2023/04/28 08:20:52;;;;;;;;;;;18.80;88.30;;;;;;5113979;28;19973;-55
2023/04/28 08:23:19;;;;;;;;;;;18.70;88.40;;;;;;5114253;28;19908;-56
2023/04/28 08:25:45;;;;;;;;;;;18.80;88.40;;;;;;5113885;28;20398;-56
2023/04/28 08:28:11;;;;;;;;;;;18.70;88.40;;;;;;5114610;28;19964;-54
2023/04/28 08:30:37;;;;;;;;;;;18.80;88.40;;;;;;5114169;28;19907;-55
2023/04/28 08:33:03;;;;;;;;;;;18.70;87.90;;;;;;5113947;28;19912;-53
2023/04/28 08:35:28;;;;;;;;;;;18.70;88.30;;;;;;5117255;28;20304;-55
2023/04/28 08:37:54;;;;;;;;;;;18.70;88.40;;;;;;5118409;28;20307;-56
2023/04/28 08:40:20;;;;;;;;;;;18.70;88.40;;;;;;5117017;28;19916;-55
2023/04/28 08:42:46;;;;;;;;;;;18.70;88.10;;;;;;5118313;28;19920;-56
2023/04/28 08:45:14;;;;;;;;;;;18.70;88.40;;;;;;5118301;28;19961;-56
2023/04/28 08:47:44;;;;;;;;;;;18.70;88.30;;;;;;5118020;28;19908;-56
2023/04/28 08:50:13;;;;;;;;;;;18.70;88.20;;;;;;5118074;28;19915;-56
2023/04/28 08:52:40;;;;;;;;;;;18.70;88.40;;;;;;5118092;28;20232;-55
2023/04/28 08:55:09;;;;;;;;;;;18.70;88.40;;;;;;5116599;28;19912;-56
2023/04/28 08:57:40;;;;;;;;;;;18.70;88.40;;;;;;5118118;28;20006;-56
2023/04/28 09:00:05;;;;;;;;;;;18.70;88.40;;;;;;5116720;28;19923;-57
2023/04/28 09:02:31;;;;;;;;;;;18.70;88.30;;;;;;5118302;28;19908;-55
2023/04/28 09:04:57;;;;;;;;;;;18.70;88.50;;;;;;5117986;28;19907;-56
2023/04/28 09:07:23;;;;;;;;;;;18.70;88.40;;;;;;5117620;27;20382;-55
2023/04/28 09:09:48;;;;;;;;;;;18.70;88.30;;;;;;5117920;28;19908;-55
2023/04/28 09:12:14;;;;;;;;;;;18.70;88.50;;;;;;5117660;28;19908;-55
2023/04/28 09:14:39;;;;;;;;;;;18.60;88.40;;;;;;5117504;28;19985;-54
2023/04/28 09:17:11;;;;;;;;;;;18.70;88.60;;;;;;5117727;28;19915;-55
2023/04/28 09:19:37;;;;;;;;;;;18.60;88.90;;;;;;5117489;28;20413;-56
2023/04/28 09:22:04;;;;;;;;;;;18.60;88.50;;;;;;5117344;28;19962;-54
2023/04/28 09:24:32;;;;;;;;;;;18.70;88.50;;;;;;5117381;28;19907;-56
2023/04/28 09:27:01;;;;;;;;;;;18.60;88.30;;;;;;5117627;28;19977;-53
2023/04/28 09:29:27;;;;;;;;;;;18.60;88.30;;;;;;5117127;28;19908;-56
2023/04/28 09:31:53;;;;;;;;;;;18.60;88.50;;;;;;5117164;28;19912;-54
2023/04/28 09:34:19;;;;;;;;;;;18.60;88.40;;;;;;5116179;28;19961;-57
2023/04/28 09:36:44;;;;;;;;;;;18.60;88.40;;;;;;5117408;28;19912;-54
2023/04/28 09:39:11;;;;;;;;;;;18.60;88.60;;;;;;5117489;28;20416;-55
2023/04/28 09:41:39;;;;;;;;;;;18.60;88.70;;;;;;5115796;28;20362;-55
2023/04/28 09:44:17;;;;;;;;;;;18.60;88.70;;;;;;5116805;28;20447;-56
2023/04/28 09:46:43;;;;;;;;;;;18.60;88.60;;;;;;5116755;28;20390;-55
2023/04/28 09:49:09;;;;;;;;;;;18.70;88.70;;;;;;5116871;28;19943;-53
2023/04/28 09:51:35;;;;;;;;;;;18.70;88.70;;;;;;5117224;28;19908;-56
2023/04/28 09:54:03;;;;;;;;;;;18.70;88.70;;;;;;5117018;28;19908;-57
2023/04/28 09:56:29;;;;;;;;;;;18.70;88.70;;;;;;5115670;28;20327;-56
2023/04/28 09:58:59;;;;;;;;;;;18.70;88.60;;;;;;5115576;28;19919;-56
2023/04/28 10:01:26;;;;;;;;;;;18.70;88.70;;;;;;5116886;28;19968;-56
2023/04/28 10:03:52;;;;;;;;;;;18.80;88.70;;;;;;5116903;28;19908;-54
2023/04/28 10:06:18;;;;;;;;;;;18.80;88.60;;;;;;5116930;27;19958;-55
2023/04/28 10:08:47;;;;;;;;;;;18.80;88.50;;;;;;5116412;28;19912;-57
2023/04/28 10:11:14;;;;;;;;;;;18.80;88.50;;;;;;5114934;28;19933;-56
2023/04/28 10:13:41;;;;;;;;;;;18.80;88.40;;;;;;5116582;28;19956;-56
2023/04/28 10:16:07;;;;;;;;;;;18.80;88.30;;;;;;5116523;28;20338;-57
2023/04/28 10:18:34;;;;;;;;;;;18.90;88.30;;;;;;5116581;28;19912;-55
2023/04/28 10:21:02;;;;;;;;;;;18.90;88.20;;;;;;5116216;28;20363;-57
2023/04/28 10:23:46;;;;;;;;;;;18.90;88.10;;;;;;5116422;28;19912;-57
2023/04/28 10:26:12;;;;;;;;;;;18.90;88.10;;;;;;5115818;28;19912;-55
2023/04/28 10:28:45;;;;;;;;;;;18.90;88.00;;;;;;5116387;28;19953;-56
2023/04/28 10:31:11;;;;;;;;;;;18.90;88.00;;;;;;5116154;28;19908;-56
2023/04/28 10:33:37;;;;;;;;;;;18.90;87.90;;;;;;5115009;28;19907;-56
2023/04/28 10:36:03;;;;;;;;;;;18.90;87.80;;;;;;5114622;28;19919;-57
2023/04/28 10:38:29;;;;;;;;;;;18.90;87.70;;;;;;5116194;28;19908;-56
2023/04/28 10:40:59;;;;;;;;;;;18.90;87.70;;;;;;5115992;28;19923;-55
2023/04/28 10:43:25;;;;;;;;;;;19.00;87.70;;;;;;5116036;28;19927;-54
2023/04/28 10:45:51;;;;;;;;;;;18.90;87.70;;;;;;5115828;28;19908;-54
2023/04/28 10:48:17;;;;;;;;;;;19.00;87.60;;;;;;5116037;28;19908;-57
2023/04/28 10:51:01;;;;;;;;;;;19.00;87.60;;;;;;5116029;28;19960;-55
2023/04/28 10:53:53;;;;;;;;;;;18.90;87.50;;;;;;5115812;28;20040;-55
2023/04/28 10:56:24;;;;;;;;;;;19.00;87.50;;;;;;5113924;28;19908;-55
2023/04/28 10:58:56;;;;;;;;;;;19.00;87.50;;;;;;5115411;28;19915;-57
2023/04/28 11:01:30;;;;;;;;;;;19.00;87.50;;;;;;5114368;28;19916;-57
2023/04/28 11:04:01;;;;;;;;;;;19.00;87.40;;;;;;5115543;28;19907;-55
2023/04/28 11:06:39;;;;;;;;;;;19.00;87.30;;;;;;5115559;28;19999;-57
2023/04/28 11:09:11;;;;;;;;;;;19.00;87.40;;;;;;5115505;28;20057;-56
2023/04/28 11:11:38;;;;;;;;;;;19.00;87.30;;;;;;5115432;28;19911;-56
2023/04/28 11:14:16;;;;;;;;;;;19.00;87.20;;;;;;5115428;28;19911;-56
2023/04/28 11:16:49;;;;;;;;;;;19.00;87.20;;;;;;5114885;28;19946;-56
2023/04/28 11:19:17;;;;;;;;;;;19.00;87.10;;;;;;5113939;28;20049;-57
2023/04/28 11:21:42;;;;;;;;;;;19.00;87.10;;;;;;5115004;28;20381;-55
2023/04/28 11:24:09;;;;;;;;;;;19.00;87.00;;;;;;5115023;28;19908;-56
2023/04/28 11:26:36;;;;;;;;;;;19.10;87.00;;;;;;5115233;28;20369;-56
2023/04/28 11:29:01;;;;;;;;;;;19.00;86.90;;;;;;5115246;28;19907;-57
2023/04/28 11:31:27;;;;;;;;;;;19.00;86.90;;;;;;5115150;28;20357;-55
2023/04/28 11:33:56;;;;;;;;;;;19.10;87.00;;;;;;5114895;28;20015;-55
2023/04/28 11:36:25;;;;;;;;;;;19.00;86.90;;;;;;5114492;28;19908;-54
2023/04/28 11:38:50;;;;;;;;;;;19.00;86.90;;;;;;5113336;28;19924;-55
2023/04/28 11:41:16;;;;;;;;;;;19.00;86.90;;;;;;5114832;28;19942;-57
2023/04/28 11:43:41;;;;;;;;;;;19.00;87.00;;;;;;5114433;28;19920;-56
2023/04/28 11:46:07;;;;;;;;;;;19.00;87.00;;;;;;5114547;28;19990;-56
2023/04/28 11:48:32;;;;;;;;;;;19.00;86.90;;;;;;5114565;28;19912;-57
2023/04/28 11:50:59;;;;;;;;;;;19.10;87.00;;;;;;5113348;28;19947;-56
2023/04/28 11:53:43;;;;;;;;;;;19.00;87.40;;;;;;5114738;27;20002;-56
2023/04/28 11:56:09;;;;;;;;;;;19.00;86.90;;;;;;5113287;28;19960;-55
2023/04/28 11:58:34;;;;;;;;;;;19.00;86.90;;;;;;5113954;28;20286;-56
2023/04/28 12:01:09;;;;;;;;;;;19.00;86.90;;;;;;5112763;28;19916;-54
2023/04/28 12:03:45;;;;;;;;;;;19.00;86.90;;;;;;5114219;28;19965;-52
2023/04/28 12:06:10;;;;;;;;;;;19.00;86.90;;;;;;5114247;28;19954;-57
2023/04/28 12:08:36;;;;;;;;;;;19.00;86.80;;;;;;5114039;28;19935;-55
2023/04/28 12:11:12;;;;;;;;;;;19.00;86.90;;;;;;5114507;28;19951;-52
2023/04/28 12:13:38;;;;;;;;;;;19.00;86.90;;;;;;5114116;28;19908;-55
2023/04/28 12:16:07;;;;;;;;;;;19.00;86.80;;;;;;5114160;28;20355;-54
2023/04/28 12:18:34;;;;;;;;;;;19.00;86.80;;;;;;5104481;27;20386;-57
2023/04/28 12:21:00;;;;;;;;;;;19.00;86.70;;;;;;5113208;28;20330;-57
2023/04/28 12:23:29;;;;;;;;;;;19.00;86.70;;;;;;5114225;28;20122;-57
2023/04/28 12:25:54;;;;;;;;;;;19.00;86.70;;;;;;5112929;28;20006;-57
2023/04/28 12:28:20;;;;;;;;;;;19.00;86.70;;;;;;5114170;28;19911;-56
2023/04/28 12:30:45;;;;;;;;;;;19.10;86.80;;;;;;5114068;28;20018;-57
2023/04/28 12:33:24;;;;;;;;;;;19.10;86.90;;;;;;5113928;28;19908;-58
2023/04/28 12:35:49;;;;;;;;;;;19.10;87.00;;;;;;5113926;28;19908;-55
2023/04/28 12:38:15;;;;;;;;;;;19.10;87.00;;;;;;5113635;28;19908;-56
2023/04/28 12:40:41;;;;;;;;;;;19.10;87.00;;;;;;5113931;28;20283;-55
2023/04/28 12:43:07;;;;;;;;;;;19.10;87.00;;;;;;5112424;28;19935;-56
2023/04/28 12:45:33;;;;;;;;;;;19.10;86.80;;;;;;5114096;28;20004;-57
2023/04/28 12:47:59;;;;;;;;;;;19.10;86.80;;;;;;5113720;28;19915;-55
2023/04/28 12:50:25;;;;;;;;;;;19.10;86.80;;;;;;5113960;28;19908;-56
2023/04/28 12:52:51;;;;;;;;;;;19.10;87.00;;;;;;5113939;28;19957;-54
2023/04/28 12:55:16;;;;;;;;;;;19.10;87.00;;;;;;5112464;28;19912;-54
2023/04/28 12:57:42;;;;;;;;;;;19.10;87.10;;;;;;5112824;28;20015;-56
2023/04/28 13:00:08;;;;;;;;;;;19.10;87.10;;;;;;5113793;28;19963;-57
2023/04/28 13:02:33;;;;;;;;;;;19.10;87.30;;;;;;5114196;28;19957;-57
2023/04/28 13:04:59;;;;;;;;;;;19.10;87.30;;;;;;5113778;28;19915;-55
2023/04/28 13:07:24;;;;;;;;;;;19.10;87.30;;;;;;5113783;28;19968;-56
2023/04/28 13:09:50;;;;;;;;;;;19.10;87.30;;;;;;5113707;28;19908;-54
2023/04/28 13:12:15;;;;;;;;;;;19.10;87.30;;;;;;5113310;28;19960;-55
2023/04/28 13:14:41;;;;;;;;;;;19.10;87.30;;;;;;5113665;28;19952;-55
2023/04/28 13:17:07;;;;;;;;;;;19.10;87.10;;;;;;5113401;28;19935;-57
2023/04/28 13:19:33;;;;;;;;;;;19.10;86.90;;;;;;5113518;28;20294;-57
2023/04/28 13:21:59;;;;;;;;;;;19.10;86.70;;;;;;5120663;27;20319;-58
2023/04/28 13:24:25;;;;;;;;;;;19.10;86.40;;;;;;5116132;27;19915;-57
2023/04/28 13:26:50;;;;;;;;;;;19.10;86.70;;;;;;5114222;28;19912;-57
2023/04/28 13:29:17;;;;;;;;;;;19.10;87.10;;;;;;5119293;27;19912;-58
2023/04/28 13:31:42;;;;;;;;;;;19.10;87.30;;;;;;5124647;27;19957;-57
2023/04/28 13:34:14;;;;;;;;;;;19.10;86.90;;;;;;5113824;28;19990;-55
2023/04/28 13:36:40;;;;;;;;;;;19.10;87.20;;;;;;5114554;28;19919;-56
2023/04/28 13:39:10;;;;;;;;;;;19.20;87.30;;;;;;5117101;28;19908;-58
2023/04/28 13:41:35;;;;;;;;;;;19.20;87.30;;;;;;5117167;28;20383;-58
2023/04/28 13:44:01;;;;;;;;;;;19.20;87.30;;;;;;5116694;27;19919;-58
2023/04/28 13:46:26;;;;;;;;;;;19.20;87.30;;;;;;5117282;28;19914;-58
2023/04/28 13:48:52;;;;;;;;;;;19.20;87.30;;;;;;5117117;28;19931;-57
2023/04/28 13:51:18;;;;;;;;;;;19.20;87.30;;;;;;5116426;28;19952;-56
2023/04/28 13:53:43;;;;;;;;;;;19.20;87.30;;;;;;5116765;28;19912;-56
2023/04/28 13:56:09;;;;;;;;;;;19.20;87.20;;;;;;5116859;28;19912;-58
2023/04/28 13:58:35;;;;;;;;;;;19.20;87.10;;;;;;5116577;28;20487;-56
2023/04/28 14:01:02;;;;;;;;;;;19.20;87.20;;;;;;5116269;28;20362;-57
2023/04/28 14:03:28;;;;;;;;;;;19.20;87.50;;;;;;5115566;28;19911;-58
2023/04/28 14:05:54;;;;;;;;;;;19.10;87.50;;;;;;5116506;28;19907;-58
2023/04/28 14:08:20;;;;;;;;;;;19.20;87.60;;;;;;5116147;28;19961;-57
2023/04/28 14:10:46;;;;;;;;;;;19.20;87.80;;;;;;5114774;28;19908;-57